Time;durP1;ratioP1;P1;durP2;ratioP2;P2;SDS_P1;SDS_P2;PMS_P1;PMS_P2;Temp;Humidity;BMP_temperature;BMP_pressure;BME280_temperature;BME280_humidity;BME280_pressure;Samples;Min_cycle;Max_cycle;Signal;HPM_P1;HPM_P2
2022/11/10 00:00:56;;;;;;;4.90;2.03;;;14.00;99.90;;;;;;5074458;28;20287;-60
2022/11/10 00:03:23;;;;;;;3.07;2.20;;;14.00;99.90;;;;;;5074583;28;20331;-61
2022/11/10 00:05:50;;;;;;;5.23;2.60;;;14.00;99.90;;;;;;5073339;28;20709;-60
2022/11/10 00:08:17;;;;;;;10.67;2.57;;;13.90;99.90;;;;;;5075177;28;20456;-61
2022/11/10 00:11:00;;;;;;;6.57;2.20;;;14.00;99.90;;;;;;5073801;28;20634;-60
2022/11/10 00:13:31;;;;;;;4.20;2.10;;;13.90;99.90;;;;;;5074320;28;20209;-60
2022/11/10 00:18:47;;;;;;;5.33;2.23;;;13.90;99.90;;;;;;5075483;28;20223;-60
2022/11/10 00:21:15;;;;;;;6.10;2.30;;;14.00;99.90;;;;;;5074180;28;20695;-60
2022/11/10 00:23:42;;;;;;;5.13;2.03;;;14.00;99.90;;;;;;5074229;28;20232;-60
2022/11/10 00:26:14;;;;;;;6.77;2.37;;;14.00;99.90;;;;;;5073232;28;20716;-61
2022/11/10 00:28:43;;;;;;;7.27;2.47;;;14.00;99.90;;;;;;5074383;28;20201;-60
2022/11/10 00:31:11;;;;;;;4.80;2.20;;;13.90;99.90;;;;;;5073614;28;20212;-59
2022/11/10 00:33:39;;;;;;;4.30;2.40;;;13.80;99.90;;;;;;5074250;28;20230;-61
2022/11/10 00:36:07;;;;;;;7.40;2.40;;;13.70;99.90;;;;;;5073085;28;20261;-60
2022/11/10 00:38:34;;;;;;;7.77;2.47;;;13.70;99.90;;;;;;5074539;28;20695;-61
2022/11/10 00:41:01;;;;;;;7.07;2.27;;;13.80;99.90;;;;;;5074051;28;20209;-60
2022/11/10 00:43:29;;;;;;;4.60;2.13;;;13.80;99.90;;;;;;5073651;28;20311;-60
2022/11/10 00:45:58;;;;;;;6.03;2.27;;;13.80;99.90;;;;;;5073396;28;20239;-60
2022/11/10 00:48:25;;;;;;;7.40;2.50;;;13.90;99.90;;;;;;5075185;28;20287;-60
2022/11/10 00:50:52;;;;;;;7.43;2.67;;;14.00;99.90;;;;;;5074845;28;20319;-61
2022/11/10 00:53:19;;;;;;;8.37;2.57;;;14.00;99.90;;;;;;5074372;28;20204;-60
2022/11/10 00:55:46;;;;;;;4.93;2.57;;;14.00;99.90;;;;;;5073604;28;20236;-61
2022/11/10 00:58:13;;;;;;;8.57;2.80;;;14.00;99.90;;;;;;5074470;28;20561;-60
2022/11/10 01:00:39;;;;;;;5.90;2.60;;;13.80;99.90;;;;;;5074523;28;20244;-60
2022/11/10 01:03:08;;;;;;;5.63;2.40;;;13.80;99.90;;;;;;5074174;28;20346;-61
2022/11/10 01:05:38;;;;;;;5.80;2.73;;;13.80;99.90;;;;;;5074022;28;20229;-59
2022/11/10 01:08:05;;;;;;;5.27;2.50;;;13.80;99.90;;;;;;5076759;28;20224;-60
2022/11/10 01:10:32;;;;;;;5.80;2.53;;;13.80;99.90;;;;;;5078977;28;20291;-60
2022/11/10 01:12:59;;;;;;;6.17;2.80;;;13.80;99.90;;;;;;5078681;28;20196;-60
2022/11/10 01:15:26;;;;;;;8.73;2.93;;;13.90;99.90;;;;;;5079007;28;20229;-60
2022/11/10 01:17:55;;;;;;;5.30;2.57;;;13.90;99.90;;;;;;5081278;28;20212;-60
2022/11/10 01:20:24;;;;;;;7.63;2.77;;;13.90;99.90;;;;;;5079897;28;20204;-60
2022/11/10 01:22:50;;;;;;;4.77;2.70;;;13.90;99.90;;;;;;5079597;28;20311;-60
2022/11/10 01:25:17;;;;;;;5.87;2.60;;;13.90;99.90;;;;;;5080019;28;20224;-60
2022/11/10 01:27:44;;;;;;;5.60;2.30;;;13.90;99.90;;;;;;5079958;28;20211;-61
2022/11/10 01:30:12;;;;;;;8.47;2.50;;;13.90;99.90;;;;;;5080202;28;20205;-60
2022/11/10 01:32:39;;;;;;;5.33;2.30;;;13.90;99.90;;;;;;5079363;28;20262;-60
2022/11/10 01:35:07;;;;;;;6.80;2.20;;;13.90;99.90;;;;;;5078801;28;20229;-60
2022/11/10 01:37:35;;;;;;;6.03;2.30;;;13.90;99.90;;;;;;5080157;28;20200;-60
2022/11/10 01:40:03;;;;;;;7.47;2.57;;;13.90;99.90;;;;;;5079386;28;20209;-61
2022/11/10 01:42:52;;;;;;;4.63;2.57;;;13.90;99.90;;;;;;5079398;28;20303;-60
2022/11/10 01:45:44;;;;;;;8.43;2.30;;;13.90;99.90;;;;;;5078513;28;20256;-60
2022/11/10 01:48:15;;;;;;;7.10;2.40;;;13.90;99.90;;;;;;5079434;28;20262;-60
2022/11/10 01:50:44;;;;;;;6.47;2.50;;;13.90;99.90;;;;;;5079410;28;20235;-60
2022/11/10 01:53:27;;;;;;;9.97;2.90;;;13.90;99.90;;;;;;5078757;28;20208;-59
2022/11/10 01:55:55;;;;;;;4.87;2.23;;;13.90;99.90;;;;;;5078805;28;20232;-59
2022/11/10 01:58:26;;;;;;;6.37;2.63;;;13.80;99.90;;;;;;5079489;28;20211;-59
2022/11/10 02:00:54;;;;;;;5.70;2.40;;;13.70;99.90;;;;;;5078860;28;20748;-59
2022/11/10 02:03:27;;;;;;;3.83;2.00;;;13.60;99.90;;;;;;5079319;28;20240;-59
2022/11/10 02:05:55;;;;;;;7.60;2.53;;;13.50;99.90;;;;;;5078718;28;20236;-60
2022/11/10 02:08:24;;;;;;;7.77;2.43;;;13.40;99.90;;;;;;5079462;28;20209;-60
2022/11/10 02:10:50;;;;;;;7.90;2.60;;;13.20;99.90;;;;;;5078334;28;20209;-59
2022/11/10 02:13:17;;;;;;;6.87;2.67;;;13.20;99.90;;;;;;5077745;28;20652;-60
2022/11/10 02:15:44;;;;;;;8.17;2.27;;;13.20;99.90;;;;;;5077448;28;20296;-60
2022/11/10 02:18:11;;;;;;;6.43;2.37;;;13.20;99.90;;;;;;5079201;28;20205;-60
2022/11/10 02:20:38;;;;;;;10.57;2.90;;;13.20;99.90;;;;;;5078176;28;20200;-60
2022/11/10 02:23:14;;;;;;;5.40;2.30;;;13.20;99.90;;;;;;5077697;28;20226;-60
2022/11/10 02:25:41;;;;;;;5.93;2.50;;;13.20;99.90;;;;;;5077784;28;20224;-60
2022/11/10 02:28:08;;;;;;;9.03;2.70;;;13.30;99.90;;;;;;5077721;28;20208;-60
2022/11/10 02:30:35;;;;;;;6.20;2.57;;;13.30;99.90;;;;;;5079017;28;20296;-59
2022/11/10 02:33:03;;;;;;;5.27;2.17;;;13.30;99.90;;;;;;5079742;28;20204;-61
2022/11/10 02:35:30;;;;;;;7.53;2.23;;;13.30;99.90;;;;;;5078934;28;20594;-60
2022/11/10 02:37:57;;;;;;;8.83;2.53;;;13.30;99.90;;;;;;5080485;28;20243;-59
2022/11/10 02:40:25;;;;;;;8.23;2.20;;;13.20;99.90;;;;;;5080440;28;20208;-58
2022/11/10 02:42:52;;;;;;;8.27;2.40;;;13.20;99.90;;;;;;5080222;28;20232;-59
2022/11/10 02:45:19;;;;;;;6.50;2.17;;;13.10;99.90;;;;;;5079042;28;20312;-58
2022/11/10 02:47:46;;;;;;;5.67;2.20;;;13.10;99.90;;;;;;5080699;28;20665;-59
2022/11/10 02:50:13;;;;;;;6.00;2.37;;;13.10;99.90;;;;;;5080066;28;20307;-59
2022/11/10 02:52:39;;;;;;;6.33;2.23;;;13.00;99.90;;;;;;5079585;28;20205;-58
2022/11/10 02:55:07;;;;;;;3.60;1.97;;;13.00;99.90;;;;;;5079072;28;20223;-58
2022/11/10 02:57:35;;;;;;;7.27;2.27;;;12.90;99.90;;;;;;5078977;28;20201;-58
2022/11/10 03:00:02;;;;;;;7.57;2.73;;;12.90;99.90;;;;;;5078362;28;20216;-58
2022/11/10 03:02:29;;;;;;;4.97;2.20;;;12.90;99.90;;;;;;5078594;28;20204;-58
2022/11/10 03:04:57;;;;;;;8.53;2.30;;;12.90;99.90;;;;;;5078188;28;20221;-59
2022/11/10 03:07:23;;;;;;;5.80;2.70;;;13.00;99.90;;;;;;5077601;28;20212;-58
2022/11/10 03:09:50;;;;;;;5.70;3.00;;;13.00;99.90;;;;;;5077360;28;20215;-58
2022/11/10 03:12:17;;;;;;;8.43;2.90;;;13.00;99.90;;;;;;5077195;28;20574;-59
2022/11/10 03:14:46;;;;;;;4.13;2.37;;;13.00;99.90;;;;;;5076895;28;20209;-58
2022/11/10 03:17:12;;;;;;;5.70;2.20;;;12.90;99.90;;;;;;5078363;28;20243;-60
2022/11/10 03:19:39;;;;;;;7.87;2.40;;;12.90;99.90;;;;;;5078053;28;20201;-59
2022/11/10 03:22:06;;;;;;;8.77;2.67;;;12.90;99.90;;;;;;5076061;28;20204;-59
2022/11/10 03:24:33;;;;;;;9.93;2.87;;;12.90;99.90;;;;;;5076096;28;20224;-59
2022/11/10 03:27:00;;;;;;;5.63;2.57;;;12.90;99.90;;;;;;5075314;28;20256;-60
2022/11/10 03:29:26;;;;;;;8.03;2.43;;;12.90;99.90;;;;;;5076199;28;20212;-59
2022/11/10 03:31:55;;;;;;;8.80;3.00;;;12.90;99.90;;;;;;5075751;28;20201;-59
2022/11/10 03:34:21;;;;;;;6.77;2.63;;;12.80;99.90;;;;;;5076119;28;20236;-59
2022/11/10 03:36:48;;;;;;;6.53;2.80;;;12.80;99.90;;;;;;5075285;28;20232;-59
2022/11/10 03:39:16;;;;;;;8.53;2.60;;;12.60;99.90;;;;;;5076041;28;20213;-59
2022/11/10 03:41:43;;;;;;;8.60;2.87;;;12.40;99.90;;;;;;5076032;28;20634;-58
2022/11/10 03:44:10;;;;;;;10.43;3.10;;;12.30;99.90;;;;;;5075102;28;20229;-59
2022/11/10 03:46:36;;;;;;;8.97;2.70;;;12.20;99.90;;;;;;5075851;28;20225;-58
2022/11/10 03:49:04;;;;;;;10.67;2.90;;;12.10;99.90;;;;;;5076729;28;20303;-60
2022/11/10 03:51:31;;;;;;;12.70;3.27;;;12.00;99.90;;;;;;5074897;28;20300;-59
2022/11/10 03:53:58;;;;;;;12.30;3.10;;;11.90;99.90;;;;;;5074992;28;20207;-59
2022/11/10 03:56:25;;;;;;;7.90;2.80;;;11.80;99.90;;;;;;5075086;28;20295;-59
2022/11/10 03:58:52;;;;;;;15.17;2.90;;;11.80;99.90;;;;;;5074827;28;20208;-60
2022/11/10 04:01:19;;;;;;;12.43;3.53;;;11.80;99.90;;;;;;5075000;28;20204;-59
2022/11/10 04:03:49;;;;;;;8.70;2.83;;;11.70;99.90;;;;;;5075117;28;20692;-59
2022/11/10 04:09:02;;;;;;;9.17;3.20;;;11.70;99.90;;;;;;5075326;28;20246;-59
2022/11/10 04:17:00;;;;;;;11.23;3.20;;;11.90;99.90;;;;;;5076908;28;20223;-59
2022/11/10 04:19:27;;;;;;;13.03;7.17;;;11.90;99.90;;;;;;5077362;28;20201;-60
2022/11/10 04:21:56;;;;;;;6.43;2.80;;;11.90;99.90;;;;;;5074327;28;20661;-60
2022/11/10 04:24:23;;;;;;;11.57;2.93;;;12.00;99.90;;;;;;5074745;28;20224;-60
2022/11/10 04:26:50;;;;;;;10.77;3.10;;;12.00;99.90;;;;;;5073776;28;20221;-60
2022/11/10 04:29:19;;;;;;;6.37;2.90;;;12.00;99.90;;;;;;5074656;28;20256;-60
2022/11/10 04:31:46;;;;;;;10.77;2.80;;;12.00;99.90;;;;;;5077318;28;20671;-59
2022/11/10 04:34:14;;;;;;;11.00;2.73;;;11.90;99.90;;;;;;5074148;28;20568;-60
2022/11/10 04:36:43;;;;;;;8.30;2.93;;;12.00;99.90;;;;;;5075403;28;20236;-61
2022/11/10 04:39:11;;;;;;;5.07;2.73;;;12.00;99.90;;;;;;5080014;28;20211;-60
2022/11/10 04:41:38;;;;;;;10.57;3.20;;;12.00;99.90;;;;;;5074235;28;20250;-60
2022/11/10 04:44:06;;;;;;;5.97;4.00;;;12.00;99.90;;;;;;5075796;28;20244;-60
2022/11/10 04:46:35;;;;;;;7.57;2.70;;;12.00;99.90;;;;;;5075106;28;20272;-60
2022/11/10 04:49:03;;;;;;;7.03;2.90;;;11.80;99.90;;;;;;5075656;28;20201;-60
2022/11/10 04:51:32;;;;;;;7.17;2.90;;;11.70;99.90;;;;;;5073789;28;20240;-60
2022/11/10 04:53:59;;;;;;;7.00;2.90;;;11.60;99.90;;;;;;5073982;28;20203;-60
2022/11/10 04:56:27;;;;;;;9.30;3.20;;;11.50;99.90;;;;;;5073301;28;20597;-60
2022/11/10 04:58:54;;;;;;;7.73;3.43;;;11.40;99.90;;;;;;5074836;28;20208;-60
2022/11/10 05:01:23;;;;;;;6.63;2.63;;;11.30;99.90;;;;;;5075109;28;20291;-60
2022/11/10 05:03:50;;;;;;;10.03;3.40;;;11.30;99.90;;;;;;5075838;28;20599;-61
2022/11/10 05:06:18;;;;;;;7.60;3.00;;;11.30;99.90;;;;;;5074567;28;20242;-60
2022/11/10 05:08:45;;;;;;;13.50;4.50;;;11.20;99.90;;;;;;5074368;28;20205;-60
2022/11/10 05:11:12;;;;;;;6.83;3.37;;;11.10;99.90;;;;;;5074691;28;20208;-60
2022/11/10 05:13:41;;;;;;;14.43;4.67;;;11.10;99.90;;;;;;5074621;28;20684;-60
2022/11/10 05:16:08;;;;;;;13.53;4.00;;;11.00;99.90;;;;;;5075002;28;20235;-62
2022/11/10 05:18:35;;;;;;;5.77;3.50;;;11.00;99.90;;;;;;5075151;28;20248;-60
2022/11/10 05:21:02;;;;;;;10.23;2.70;;;10.90;99.90;;;;;;5074346;28;20240;-61
2022/11/10 05:23:38;;;;;;;8.77;3.30;;;10.80;99.90;;;;;;5073422;28;20219;-60
2022/11/10 05:26:05;;;;;;;12.37;3.30;;;10.80;99.90;;;;;;5073231;28;20220;-58
2022/11/10 05:28:32;;;;;;;8.87;3.13;;;10.70;99.90;;;;;;5073157;28;20212;-58
2022/11/10 05:31:01;;;;;;;9.20;3.70;;;10.60;99.90;;;;;;5074146;28;20211;-58
2022/11/10 05:33:28;;;;;;;9.03;3.40;;;10.60;99.90;;;;;;5074261;28;20258;-58
2022/11/10 05:35:55;;;;;;;6.70;3.53;;;10.50;99.90;;;;;;5073190;28;20726;-59
2022/11/10 05:38:21;;;;;;;10.63;4.30;;;10.50;99.90;;;;;;5073360;28;20209;-58
2022/11/10 05:40:48;;;;;;;13.20;5.50;;;10.40;99.90;;;;;;5073754;28;20247;-59
2022/11/10 05:43:15;;;;;;;11.10;3.70;;;10.30;99.90;;;;;;5072567;28;20319;-60
2022/11/10 05:45:45;;;;;;;11.40;4.07;;;10.30;99.90;;;;;;5072995;28;20240;-60
2022/11/10 05:48:13;;;;;;;7.33;3.70;;;10.30;99.90;;;;;;5072971;28;20254;-59
2022/11/10 05:50:42;;;;;;;17.37;4.60;;;10.20;99.90;;;;;;5072453;28;20209;-60
2022/11/10 05:53:09;;;;;;;12.97;4.60;;;10.20;99.90;;;;;;5072973;28;20208;-59
2022/11/10 05:55:35;;;;;;;12.60;3.90;;;10.20;99.90;;;;;;5075080;28;20225;-59
2022/11/10 05:58:02;;;;;;;7.03;3.53;;;10.20;99.90;;;;;;5075616;28;20208;-60
2022/11/10 06:00:31;;;;;;;9.53;5.23;;;10.10;99.90;;;;;;5076661;28;20254;-59
2022/11/10 06:03:02;;;;;;;8.67;4.00;;;10.10;99.90;;;;;;5075935;28;20324;-59
2022/11/10 06:05:32;;;;;;;11.97;4.30;;;10.10;99.90;;;;;;5075712;28;20232;-60
2022/11/10 06:07:59;;;;;;;11.00;4.13;;;10.00;99.90;;;;;;5076406;28;20211;-59
2022/11/10 06:10:27;;;;;;;12.50;4.40;;;10.00;99.90;;;;;;5075977;28;20216;-60
2022/11/10 06:12:54;;;;;;;9.07;5.27;;;10.00;99.90;;;;;;5076438;28;20219;-60
2022/11/10 06:15:21;;;;;;;10.57;4.70;;;10.00;99.90;;;;;;5076065;28;20227;-59
2022/11/10 06:17:48;;;;;;;17.80;10.77;;;9.90;99.90;;;;;;5076651;28;20292;-61
2022/11/10 06:20:16;;;;;;;10.47;5.03;;;10.00;99.90;;;;;;5077451;28;20300;-60
2022/11/10 06:22:57;;;;;;;12.17;4.67;;;9.90;99.90;;;;;;5075436;28;20263;-60
2022/11/10 06:25:24;;;;;;;8.27;5.10;;;9.90;99.90;;;;;;5074775;28;20259;-60
2022/11/10 06:27:51;;;;;;;11.73;5.60;;;9.90;99.90;;;;;;5075254;28;20241;-60
2022/11/10 06:30:18;;;;;;;10.63;4.77;;;9.90;99.90;;;;;;5075079;28;20205;-60
2022/11/10 06:32:45;;;;;;;9.70;4.90;;;9.90;99.90;;;;;;5075484;28;20669;-60
2022/11/10 06:35:12;;;;;;;12.80;5.50;;;9.90;99.90;;;;;;5036473;28;1078387;-61
2022/11/10 06:37:39;;;;;;;8.40;4.97;;;9.90;99.90;;;;;;5076372;28;20219;-60
2022/11/10 06:40:09;;;;;;;12.13;6.27;;;9.90;99.90;;;;;;5076887;28;20204;-60
2022/11/10 06:42:37;;;;;;;12.00;5.33;;;9.80;99.90;;;;;;5076612;28;20205;-61
2022/11/10 06:45:04;;;;;;;7.37;4.47;;;9.90;99.90;;;;;;5076695;28;20260;-60
2022/11/10 06:47:31;;;;;;;8.87;4.23;;;9.90;99.90;;;;;;5077982;28;20211;-59
2022/11/10 06:49:58;;;;;;;8.40;4.70;;;10.00;99.90;;;;;;5077594;28;20618;-60
2022/11/10 06:52:25;;;;;;;12.17;5.30;;;10.00;99.90;;;;;;5076757;28;20209;-60
2022/11/10 06:54:52;;;;;;;9.03;4.67;;;10.10;99.90;;;;;;5075352;28;20232;-60
2022/11/10 06:57:20;;;;;;;9.73;4.60;;;10.20;99.90;;;;;;5077843;28;20258;-59
2022/11/10 06:59:47;;;;;;;7.13;4.63;;;10.30;99.90;;;;;;5076005;28;20205;-60
2022/11/10 07:02:14;;;;;;;13.77;4.77;;;10.30;99.90;;;;;;5075485;28;20235;-59
2022/11/10 07:04:42;;;;;;;9.90;5.23;;;10.30;99.90;;;;;;5074700;28;20743;-60
2022/11/10 07:07:09;;;;;;;10.33;6.37;;;10.40;99.90;;;;;;5074970;28;20576;-60
2022/11/10 07:09:36;;;;;;;7.87;4.77;;;10.40;99.90;;;;;;5075627;28;20201;-60
2022/11/10 07:12:03;;;;;;;11.93;4.40;;;10.40;99.90;;;;;;5076160;28;20625;-59
2022/11/10 07:14:31;;;;;;;9.47;4.57;;;10.40;99.90;;;;;;5076750;28;20276;-59
2022/11/10 07:16:59;;;;;;;10.63;4.00;;;10.40;99.90;;;;;;5076514;28;20225;-59
2022/11/10 07:19:26;;;;;;;8.97;4.70;;;10.40;99.90;;;;;;5076404;28;20213;-59
2022/11/10 07:21:53;;;;;;;8.17;4.67;;;10.40;99.90;;;;;;5075982;28;20263;-59
2022/11/10 07:24:20;;;;;;;12.50;5.30;;;10.50;99.90;;;;;;5075255;28;20208;-57
2022/11/10 07:26:47;;;;;;;13.80;5.80;;;10.60;99.90;;;;;;5073956;28;20306;-57
2022/11/10 07:29:13;;;;;;;9.27;4.93;;;10.70;99.90;;;;;;5074450;28;20235;-57
2022/11/10 07:31:42;;;;;;;9.50;4.37;;;10.80;99.90;;;;;;5074227;28;20296;-58
2022/11/10 07:34:09;;;;;;;11.40;5.60;;;11.00;99.90;;;;;;5073908;28;20292;-58
2022/11/10 07:36:36;;;;;;;13.73;5.70;;;11.10;99.90;;;;;;5074108;28;20271;-57
2022/11/10 07:39:03;;;;;;;12.90;5.73;;;11.30;99.90;;;;;;5074311;28;20269;-57
2022/11/10 07:41:30;;;;;;;13.40;6.37;;;11.40;99.90;;;;;;5074499;28;20237;-57
2022/11/10 07:43:57;;;;;;;16.10;6.20;;;11.50;99.90;;;;;;5073899;28;20292;-57
2022/11/10 07:46:24;;;;;;;9.67;4.93;;;11.50;99.90;;;;;;5073448;28;20276;-57
2022/11/10 07:48:53;;;;;;;8.07;3.80;;;11.60;99.90;;;;;;5073616;28;20216;-57
2022/11/10 07:51:20;;;;;;;6.57;3.57;;;11.60;99.90;;;;;;5074730;28;20213;-57
2022/11/10 07:53:46;;;;;;;8.73;3.73;;;11.60;99.90;;;;;;5073945;28;20297;-58
2022/11/10 07:56:14;;;;;;;9.50;4.03;;;11.60;99.90;;;;;;5073875;28;20232;-57
2022/11/10 07:58:41;;;;;;;11.97;4.10;;;11.60;99.90;;;;;;5074106;28;20223;-56
2022/11/10 08:01:08;;;;;;;7.50;3.87;;;11.60;99.90;;;;;;5074871;28;20338;-57
2022/11/10 08:03:34;;;;;;;6.77;3.80;;;11.60;99.90;;;;;;5074401;28;20688;-57
2022/11/10 08:06:03;;;;;;;6.80;4.30;;;11.50;99.90;;;;;;5073417;28;20689;-56
2022/11/10 08:08:29;;;;;;;12.27;4.70;;;11.50;99.90;;;;;;5073795;28;20237;-56
2022/11/10 08:10:58;;;;;;;7.80;4.00;;;11.60;99.90;;;;;;5073763;28;20676;-56
2022/11/10 08:13:25;;;;;;;16.13;9.47;;;11.60;99.90;;;;;;5074369;28;20725;-57
2022/11/10 08:15:52;;;;;;;8.73;4.30;;;11.70;99.90;;;;;;5073119;28;20274;-58
2022/11/10 08:18:21;;;;;;;6.37;4.23;;;11.70;99.90;;;;;;5074001;28;20262;-57
2022/11/10 08:20:48;;;;;;;8.07;4.27;;;11.70;99.90;;;;;;5073586;28;20619;-57
2022/11/10 08:23:17;;;;;;;10.90;4.60;;;11.70;99.90;;;;;;5073717;28;20300;-57
2022/11/10 08:25:45;;;;;;;10.53;4.60;;;11.80;99.90;;;;;;5073361;28;20339;-56
2022/11/10 08:28:14;;;;;;;10.80;4.20;;;11.90;99.90;;;;;;5073572;28;20648;-57
2022/11/10 08:30:43;;;;;;;6.77;4.00;;;11.90;99.90;;;;;;5073736;28;20236;-57
2022/11/10 08:33:11;;;;;;;10.50;4.30;;;12.00;99.90;;;;;;5073769;28;20266;-58
2022/11/10 08:35:40;;;;;;;6.70;3.60;;;12.10;99.90;;;;;;5072803;28;20325;-57
2022/11/10 08:38:08;;;;;;;5.67;4.10;;;12.10;99.90;;;;;;5073070;28;20665;-57
2022/11/10 08:40:37;;;;;;;6.80;3.93;;;12.20;99.90;;;;;;5073381;28;20209;-57
2022/11/10 08:43:06;;;;;;;8.23;4.30;;;12.20;99.90;;;;;;5072553;28;20561;-57
2022/11/10 08:45:33;;;;;;;9.00;3.50;;;12.30;99.90;;;;;;5072512;28;20235;-57
2022/11/10 08:48:01;;;;;;;5.93;3.47;;;12.30;99.90;;;;;;5072496;28;20213;-58
2022/11/10 08:50:29;;;;;;;7.50;3.30;;;12.10;99.90;;;;;;5072527;28;20270;-58
2022/11/10 08:52:57;;;;;;;5.47;3.33;;;12.40;99.90;;;;;;5072306;28;20787;-57
2022/11/10 08:55:23;;;;;;;8.47;3.40;;;12.50;99.90;;;;;;5071715;28;20654;-56
2022/11/10 08:57:52;;;;;;;7.10;3.80;;;12.60;99.90;;;;;;5072221;28;20208;-57
2022/11/10 09:00:20;;;;;;;9.50;5.07;;;12.70;99.90;;;;;;5072103;28;20578;-56
2022/11/10 09:02:46;;;;;;;11.13;3.60;;;12.90;99.90;;;;;;5072337;28;20211;-57
2022/11/10 09:05:13;;;;;;;7.90;3.30;;;13.00;99.90;;;;;;5071681;28;20283;-56
2022/11/10 09:07:44;;;;;;;7.63;3.17;;;13.10;99.90;;;;;;5072243;28;20205;-57
2022/11/10 09:10:12;;;;;;;4.57;2.30;;;13.10;99.90;;;;;;5072065;28;20557;-57
2022/11/10 09:12:38;;;;;;;6.73;3.10;;;13.20;99.90;;;;;;5072726;28;20328;-58
2022/11/10 09:15:08;;;;;;;5.70;2.30;;;13.30;99.90;;;;;;5071574;28;20224;-57
2022/11/10 09:17:35;;;;;;;5.63;3.00;;;13.30;99.90;;;;;;5072412;28;20296;-57
2022/11/10 09:20:03;;;;;;;9.73;2.63;;;13.40;99.90;;;;;;5072577;28;20308;-57
2022/11/10 09:22:30;;;;;;;4.93;2.40;;;13.50;99.90;;;;;;5072586;28;20205;-57
2022/11/10 09:24:57;;;;;;;4.73;2.10;;;13.50;99.90;;;;;;5072332;28;20292;-58
2022/11/10 09:27:23;;;;;;;5.43;2.10;;;13.60;99.90;;;;;;5071644;28;20215;-57
2022/11/10 09:29:50;;;;;;;4.87;2.30;;;13.70;99.90;;;;;;5075704;28;20291;-57
2022/11/10 09:32:19;;;;;;;8.17;2.57;;;13.80;99.90;;;;;;5075747;28;20235;-57
2022/11/10 09:34:45;;;;;;;4.77;2.10;;;13.80;99.90;;;;;;5075798;28;20684;-57
2022/11/10 09:37:12;;;;;;;5.00;2.63;;;13.90;99.90;;;;;;5075429;28;20216;-57
2022/11/10 09:39:39;;;;;;;7.00;2.43;;;14.00;99.90;;;;;;5075917;28;20668;-58
2022/11/10 09:42:25;;;;;;;4.43;2.10;;;14.20;99.90;;;;;;5076097;28;20291;-57
2022/11/10 09:44:58;;;;;;;9.27;3.60;;;14.20;99.90;;;;;;5076062;28;20557;-58
2022/11/10 09:47:33;;;;;;;8.60;2.57;;;14.20;99.90;;;;;;5075611;28;20220;-58
2022/11/10 09:50:02;;;;;;;6.67;2.03;;;14.30;99.90;;;;;;5075648;28;20204;-57
2022/11/10 09:52:34;;;;;;;5.30;2.13;;;14.40;99.90;;;;;;5075856;28;20209;-60
2022/11/10 09:55:11;;;;;;;5.07;2.20;;;14.40;99.90;;;;;;5075694;28;20661;-57
2022/11/10 09:57:37;;;;;;;5.60;2.17;;;14.50;99.90;;;;;;5075772;28;20715;-57
2022/11/10 10:00:05;;;;;;;6.70;2.60;;;14.60;99.90;;;;;;5075986;28;20262;-58
2022/11/10 10:02:38;;;;;;;5.13;2.10;;;14.60;99.90;;;;;;5075815;28;20239;-58
2022/11/10 10:05:32;;;;;;;6.53;2.47;;;14.60;99.90;;;;;;5075619;28;20264;-58
2022/11/10 10:08:02;;;;;;;7.67;2.50;;;14.60;99.90;;;;;;5075772;28;20665;-57
2022/11/10 10:10:37;;;;;;;5.97;2.20;;;14.80;99.90;;;;;;5075924;28;20240;-57
2022/11/10 10:13:26;;;;;;;5.07;2.40;;;15.00;99.90;;;;;;5075466;28;20610;-57
2022/11/10 10:16:06;;;;;;;5.03;2.53;;;15.10;99.90;;;;;;5074746;28;20654;-57
2022/11/10 10:18:42;;;;;;;15.90;9.80;;;15.10;99.90;;;;;;5075195;28;20286;-58
2022/11/10 10:21:39;;;;;;;5.77;2.17;;;15.30;99.90;;;;;;5075230;28;20231;-57
2022/11/10 10:24:11;;;;;;;7.07;2.37;;;15.40;99.90;;;;;;5073726;28;20235;-57
2022/11/10 10:26:41;;;;;;;7.83;2.33;;;15.40;99.90;;;;;;5074718;28;20276;-56
2022/11/10 10:29:10;;;;;;;6.03;1.87;;;15.40;99.90;;;;;;5075522;28;20673;-56
2022/11/10 10:31:42;;;;;;;5.57;1.90;;;15.40;99.90;;;;;;5075187;28;20299;-57
2022/11/10 10:34:16;;;;;;;5.17;2.23;;;15.50;99.90;;;;;;5075240;28;20200;-57
2022/11/10 10:36:44;;;;;;;7.67;2.30;;;15.60;99.90;;;;;;5075272;28;20234;-57
2022/11/10 10:39:13;;;;;;;4.10;1.73;;;15.60;99.90;;;;;;5074892;28;20681;-58
2022/11/10 10:41:43;;;;;;;6.57;1.90;;;15.60;99.90;;;;;;5074827;28;20696;-57
2022/11/10 10:44:13;;;;;;;5.00;2.00;;;15.70;99.90;;;;;;5074938;28;20212;-57
2022/11/10 10:46:45;;;;;;;6.43;2.10;;;15.80;99.90;;;;;;5074370;28;20237;-57
2022/11/10 10:49:20;;;;;;;4.73;2.00;;;15.90;99.90;;;;;;5075266;28;20585;-57
2022/11/10 10:51:49;;;;;;;7.30;2.20;;;15.90;99.90;;;;;;5074808;28;20207;-57
2022/11/10 10:54:27;;;;;;;4.67;1.70;;;15.90;99.90;;;;;;5074301;28;20689;-57
2022/11/10 10:57:03;;;;;;;4.57;2.00;;;16.00;99.90;;;;;;5074351;28;20227;-58
2022/11/10 10:59:30;;;;;;;6.17;1.90;;;16.00;99.90;;;;;;5075370;28;20204;-58
2022/11/10 11:01:57;;;;;;;3.90;1.60;;;16.00;99.90;;;;;;5074774;28;20215;-59
2022/11/10 11:04:31;;;;;;;4.33;1.70;;;15.90;99.90;;;;;;5074466;28;20211;-57
2022/11/10 11:07:03;;;;;;;6.40;1.70;;;15.80;99.90;;;;;;5073683;28;20315;-57
2022/11/10 11:09:38;;;;;;;7.27;2.13;;;15.70;99.90;;;;;;5062757;28;20213;-57
2022/11/10 11:12:08;;;;;;;4.50;1.70;;;15.60;99.90;;;;;;5067091;28;20814;-58
2022/11/10 11:14:35;;;;;;;4.10;2.10;;;15.60;99.90;;;;;;5073374;28;20209;-56
2022/11/10 11:17:11;;;;;;;4.93;1.97;;;15.60;99.90;;;;;;5072695;28;20220;-57
2022/11/10 11:19:40;;;;;;;4.93;1.93;;;15.60;99.90;;;;;;5073399;28;20208;-56
2022/11/10 11:22:36;;;;;;;6.67;1.53;;;15.50;99.90;;;;;;5073044;28;20205;-56
2022/11/10 11:25:12;;;;;;;4.60;1.43;;;15.60;99.90;;;;;;5064040;28;20225;-57
2022/11/10 11:27:49;;;;;;;6.27;2.13;;;15.80;99.90;;;;;;5053568;28;20221;-59
2022/11/10 11:30:17;;;;;;;4.33;1.30;;;15.90;99.90;;;;;;5068173;28;20200;-61
2022/11/10 11:33:23;;;;;;;4.03;1.57;;;15.90;99.90;;;;;;5073348;28;20637;-62
2022/11/10 11:35:56;;;;;;;4.93;1.63;;;16.00;99.90;;;;;;5012898;28;20725;-61
2022/11/10 11:38:31;;;;;;;3.17;1.20;;;16.20;99.90;;;;;;5053282;28;20213;-58
2022/11/10 11:41:08;;;;;;;5.22;1.48;;;16.30;99.90;;;;;;5053872;28;20201;-56
2022/11/10 11:44:11;;;;;;;5.50;3.13;;;16.30;99.90;;;;;;5054258;28;20213;-58
2022/11/10 11:46:46;;;;;;;4.53;1.93;;;16.30;99.90;;;;;;5049627;28;20320;-57
2022/11/10 11:49:41;;;;;;;6.22;1.83;;;16.50;99.90;;;;;;5053674;28;20201;-57
2022/11/10 11:52:21;;;;;;;7.20;1.90;;;16.80;99.90;;;;;;5053112;28;20263;-57
2022/11/10 11:55:03;;;;;;;4.68;1.30;;;17.00;99.90;;;;;;5053602;28;20212;-56
2022/11/10 11:57:42;;;;;;;4.80;1.00;;;17.10;99.90;;;;;;5053184;28;20661;-56
2022/11/10 12:00:13;;;;;;;4.95;1.35;;;16.90;99.90;;;;;;5053833;28;20213;-57
2022/11/10 12:03:28;;;;;;;6.13;1.58;;;16.80;99.90;;;;;;5054487;28;20335;-56
2022/11/10 12:06:12;;;;;;;5.25;2.85;;;16.60;99.90;;;;;;5011547;28;20735;-57
2022/11/10 12:08:48;;;;;;;5.97;1.87;;;16.50;99.90;;;;;;5012295;28;20233;-56
2022/11/10 12:11:24;;;;;;;4.80;1.30;;;16.30;99.90;;;;;;5041924;28;20711;-57
2022/11/10 12:14:00;;;;;;;6.77;1.33;;;16.20;99.90;;;;;;5053837;28;20216;-56
2022/11/10 12:16:30;;;;;;;4.18;1.40;;;16.10;99.90;;;;;;5053281;28;20225;-56
2022/11/10 12:19:09;;;;;;;4.27;1.20;;;16.00;99.90;;;;;;5053558;28;20259;-57
2022/11/10 12:21:41;;;;;;;3.90;1.63;;;15.90;99.90;;;;;;5053243;28;20677;-58
2022/11/10 12:24:42;;;;;;;3.13;1.17;;;16.00;99.90;;;;;;5052901;28;20211;-57
2022/11/10 12:27:14;;;;;;;6.03;1.33;;;16.10;99.90;;;;;;5052361;28;20703;-57
2022/11/10 12:29:45;;;;;;;3.78;1.20;;;16.10;99.90;;;;;;5052446;28;20209;-57
2022/11/10 12:32:17;;;;;;;4.53;1.30;;;16.10;99.90;;;;;;5052529;28;20210;-57
2022/11/10 12:34:50;;;;;;;9.03;1.70;;;16.10;99.90;;;;;;5052732;28;20209;-58
2022/11/10 12:37:24;;;;;;;4.00;1.17;;;16.00;99.90;;;;;;5052687;28;20205;-57
2022/11/10 12:39:58;;;;;;;3.63;1.27;;;16.10;99.90;;;;;;5053004;28;20205;-57
2022/11/10 12:42:28;;;;;;;5.82;1.00;;;16.10;99.90;;;;;;5053157;28;20213;-57
2022/11/10 12:45:00;;;;;;;12.02;5.40;;;16.10;99.90;;;;;;5052655;28;20304;-56
2022/11/10 12:47:32;;;;;;;4.88;1.10;;;16.30;99.90;;;;;;5052679;28;20229;-56
2022/11/10 12:50:10;;;;;;;5.87;1.47;;;16.60;99.90;;;;;;5052743;28;20560;-57
2022/11/10 12:52:43;;;;;;;3.08;1.27;;;16.80;99.90;;;;;;5053414;28;20224;-56
2022/11/10 12:55:14;;;;;;;2.47;1.08;;;17.10;99.90;;;;;;5052667;28;20225;-56
2022/11/10 12:57:42;;;;;;;2.33;1.15;;;17.50;99.90;;;;;;5052303;28;20259;-57
2022/11/10 13:00:25;;;;;;;3.80;1.58;;;17.90;99.90;;;;;;5052846;28;20732;-56
2022/11/10 13:02:54;;;;;;;3.08;1.23;;;18.00;99.90;;;;;;5051909;28;20201;-56
2022/11/10 13:05:40;;;;;;;3.45;1.38;;;18.00;99.90;;;;;;5052523;28;20662;-58
2022/11/10 13:08:23;;;;;;;3.88;1.48;;;17.70;99.90;;;;;;5052650;28;20697;-57
2022/11/10 13:10:54;;;;;;;7.90;1.80;;;17.60;99.90;;;;;;5052742;28;20240;-56